sensor_id;sensor_type;location;lat;lon;timestamp;pressure;altitude;pressure_sealevel;temperature;humidity
59487;BME280;45298;54.918;73.504;2023-09-12T00:01:13;99302.84;;;7.88;79.60
59487;BME280;45298;54.918;73.504;2023-09-12T00:03:42;99300.03;;;7.76;79.38
59487;BME280;45298;54.918;73.504;2023-09-12T00:06:11;99283.66;;;7.71;80.05
59487;BME280;45298;54.918;73.504;2023-09-12T00:08:40;99290.06;;;7.67;79.65
59487;BME280;45298;54.918;73.504;2023-09-12T00:11:13;99293.44;;;7.69;80.15
59487;BME280;45298;54.918;73.504;2023-09-12T00:13:41;99309.19;;;7.70;79.99
59487;BME280;45298;54.918;73.504;2023-09-12T00:16:10;99310.22;;;7.68;79.96
59487;BME280;45298;54.918;73.504;2023-09-12T00:18:40;99271.69;;;7.36;80.38
59487;BME280;45298;54.918;73.504;2023-09-12T00:21:09;99304.09;;;7.53;80.75
59487;BME280;45298;54.918;73.504;2023-09-12T00:23:38;99295.41;;;7.51;81.25
59487;BME280;45298;54.918;73.504;2023-09-12T00:26:07;99299.88;;;7.50;81.62
59487;BME280;45298;54.918;73.504;2023-09-12T00:28:36;99314.47;;;7.56;80.96
59487;BME280;45298;54.918;73.504;2023-09-12T00:31:07;99316.06;;;7.44;81.00
59487;BME280;45298;54.918;73.504;2023-09-12T00:33:36;99332.28;;;7.52;80.72
59487;BME280;45298;54.918;73.504;2023-09-12T00:36:05;99332.47;;;7.49;81.35
59487;BME280;45298;54.918;73.504;2023-09-12T00:38:34;99318.22;;;7.37;81.09
59487;BME280;45298;54.918;73.504;2023-09-12T00:41:02;99322.75;;;7.35;81.23
59487;BME280;45298;54.918;73.504;2023-09-12T00:43:31;99340.75;;;7.43;81.24
59487;BME280;45298;54.918;73.504;2023-09-12T00:46:00;99323.50;;;7.37;80.43
59487;BME280;45298;54.918;73.504;2023-09-12T00:48:30;99323.22;;;7.28;80.47
59487;BME280;45298;54.918;73.504;2023-09-12T00:51:00;99337.91;;;7.32;80.84
59487;BME280;45298;54.918;73.504;2023-09-12T00:53:29;99327.72;;;7.25;81.39
59487;BME280;45298;54.918;73.504;2023-09-12T00:55:59;99333.94;;;7.24;80.92
59487;BME280;45298;54.918;73.504;2023-09-12T00:58:28;99335.75;;;7.24;81.56
59487;BME280;45298;54.918;73.504;2023-09-12T01:00:58;99326.97;;;7.23;81.68
59487;BME280;45298;54.918;73.504;2023-09-12T01:03:27;99338.38;;;7.24;80.89
59487;BME280;45298;54.918;73.504;2023-09-12T01:05:57;99334.88;;;7.23;81.43
59487;BME280;45298;54.918;73.504;2023-09-12T01:08:28;99344.31;;;7.28;81.21
59487;BME280;45298;54.918;73.504;2023-09-12T01:10:57;99315.94;;;7.17;81.34
59487;BME280;45298;54.918;73.504;2023-09-12T01:13:27;99337.34;;;7.26;81.02
59487;BME280;45298;54.918;73.504;2023-09-12T01:15:57;99323.09;;;7.15;80.75
59487;BME280;45298;54.918;73.504;2023-09-12T01:18:26;99273.97;;;6.83;81.07
59487;BME280;45298;54.918;73.504;2023-09-12T01:26:54;99351.81;;;7.19;81.50
59487;BME280;45298;54.918;73.504;2023-09-12T01:29:27;99327.78;;;7.09;81.47
59487;BME280;45298;54.918;73.504;2023-09-12T01:31:57;99311.66;;;7.00;81.11
59487;BME280;45298;54.918;73.504;2023-09-12T01:34:27;99333.28;;;7.21;81.42
59487;BME280;45298;54.918;73.504;2023-09-12T01:36:57;99331.94;;;7.14;80.82
59487;BME280;45298;54.918;73.504;2023-09-12T01:39:26;99330.91;;;7.16;81.47
59487;BME280;45298;54.918;73.504;2023-09-12T01:41:55;99322.75;;;7.21;80.78
59487;BME280;45298;54.918;73.504;2023-09-12T01:44:27;99335.47;;;7.29;80.76
59487;BME280;45298;54.918;73.504;2023-09-12T01:47:00;99314.72;;;7.22;80.36
59487;BME280;45298;54.918;73.504;2023-09-12T01:49:31;99320.75;;;7.39;80.53
59487;BME280;45298;54.918;73.504;2023-09-12T01:52:02;99319.16;;;7.51;79.93
59487;BME280;45298;54.918;73.504;2023-09-12T01:54:32;99305.69;;;8.26;78.16
59487;BME280;45298;54.918;73.504;2023-09-12T01:57:03;99344.38;;;8.69;77.48
59487;BME280;45298;54.918;73.504;2023-09-12T01:59:32;99335.97;;;8.90;76.93
59487;BME280;45298;54.918;73.504;2023-09-12T02:02:00;99324.59;;;9.15;75.89
59487;BME280;45298;54.918;73.504;2023-09-12T02:04:30;99334.22;;;9.55;75.02
59487;BME280;45298;54.918;73.504;2023-09-12T02:06:58;99330.28;;;9.87;73.70
59487;BME280;45298;54.918;73.504;2023-09-12T02:09:27;99318.66;;;9.89;73.57
59487;BME280;45298;54.918;73.504;2023-09-12T02:11:56;99335.19;;;9.80;73.09
59487;BME280;45298;54.918;73.504;2023-09-12T02:14:25;99302.47;;;9.68;72.71
59487;BME280;45298;54.918;73.504;2023-09-12T02:16:54;99338.69;;;9.80;72.88
59487;BME280;45298;54.918;73.504;2023-09-12T02:19:23;99342.28;;;10.30;71.24
59487;BME280;45298;54.918;73.504;2023-09-12T02:21:51;99342.53;;;10.75;69.64
59487;BME280;45298;54.918;73.504;2023-09-12T02:24:20;99347.88;;;11.11;69.01
59487;BME280;45298;54.918;73.504;2023-09-12T02:26:49;99316.59;;;10.67;68.58
59487;BME280;45298;54.918;73.504;2023-09-12T02:29:18;99342.03;;;10.46;69.80
59487;BME280;45298;54.918;73.504;2023-09-12T02:31:47;99316.22;;;9.86;70.11
59487;BME280;45298;54.918;73.504;2023-09-12T02:34:16;99332.31;;;9.70;69.83
59487;BME280;45298;54.918;73.504;2023-09-12T02:36:45;99332.75;;;9.64;69.83
59487;BME280;45298;54.918;73.504;2023-09-12T02:39:13;99333.00;;;9.61;70.27
59487;BME280;45298;54.918;73.504;2023-09-12T02:41:42;99332.03;;;9.49;70.16
59487;BME280;45298;54.918;73.504;2023-09-12T02:44:11;99339.84;;;9.50;70.23
59487;BME280;45298;54.918;73.504;2023-09-12T02:46:40;99340.28;;;9.57;69.90
59487;BME280;45298;54.918;73.504;2023-09-12T02:49:09;99340.69;;;9.77;69.82
59487;BME280;45298;54.918;73.504;2023-09-12T02:51:38;99342.16;;;9.81;69.54
59487;BME280;45298;54.918;73.504;2023-09-12T02:54:08;99333.69;;;9.76;69.52
59487;BME280;45298;54.918;73.504;2023-09-12T02:56:37;99332.09;;;9.86;69.80
59487;BME280;45298;54.918;73.504;2023-09-12T02:59:06;99340.66;;;10.03;69.50
59487;BME280;45298;54.918;73.504;2023-09-12T03:01:35;99343.59;;;10.11;69.22
59487;BME280;45298;54.918;73.504;2023-09-12T03:04:07;99327.47;;;10.14;69.35
59487;BME280;45298;54.918;73.504;2023-09-12T03:06:35;99332.69;;;10.16;68.93
59487;BME280;45298;54.918;73.504;2023-09-12T03:09:05;99330.88;;;10.16;68.74
59487;BME280;45298;54.918;73.504;2023-09-12T03:11:35;99350.69;;;10.23;68.55
59487;BME280;45298;54.918;73.504;2023-09-12T03:14:03;99337.44;;;10.23;67.63
59487;BME280;45298;54.918;73.504;2023-09-12T03:16:32;99310.13;;;10.10;67.77
59487;BME280;45298;54.918;73.504;2023-09-12T03:19:01;99344.28;;;10.39;67.88
59487;BME280;45298;54.918;73.504;2023-09-12T03:21:31;99348.19;;;10.46;67.45
59487;BME280;45298;54.918;73.504;2023-09-12T03:24:00;99340.47;;;10.43;67.12
59487;BME280;45298;54.918;73.504;2023-09-12T03:26:29;99317.00;;;10.37;66.35
59487;BME280;45298;54.918;73.504;2023-09-12T03:28:59;99336.69;;;10.58;66.83
59487;BME280;45298;54.918;73.504;2023-09-12T03:31:28;99343.63;;;10.72;66.86
59487;BME280;45298;54.918;73.504;2023-09-12T03:33:57;99330.97;;;10.76;66.59
59487;BME280;45298;54.918;73.504;2023-09-12T03:36:26;99348.41;;;10.92;66.41
59487;BME280;45298;54.918;73.504;2023-09-12T03:38:55;99341.91;;;10.96;66.08
59487;BME280;45298;54.918;73.504;2023-09-12T03:41:25;99338.81;;;11.02;66.39
59487;BME280;45298;54.918;73.504;2023-09-12T03:43:56;99339.78;;;11.12;65.94
59487;BME280;45298;54.918;73.504;2023-09-12T03:46:25;99353.09;;;11.24;65.88
59487;BME280;45298;54.918;73.504;2023-09-12T03:48:54;99349.72;;;11.22;65.05
59487;BME280;45298;54.918;73.504;2023-09-12T03:51:23;99353.94;;;11.24;65.75
59487;BME280;45298;54.918;73.504;2023-09-12T03:53:52;99344.41;;;11.22;66.28
59487;BME280;45298;54.918;73.504;2023-09-12T03:56:24;99341.38;;;11.15;65.69
59487;BME280;45298;54.918;73.504;2023-09-12T03:58:53;99350.91;;;11.29;65.44
59487;BME280;45298;54.918;73.504;2023-09-12T04:01:25;99350.00;;;11.41;64.60
59487;BME280;45298;54.918;73.504;2023-09-12T04:03:55;99333.84;;;11.56;64.70
59487;BME280;45298;54.918;73.504;2023-09-12T04:06:26;99347.88;;;11.81;63.10
59487;BME280;45298;54.918;73.504;2023-09-12T04:08:55;99355.59;;;11.95;62.82
59487;BME280;45298;54.918;73.504;2023-09-12T04:11:24;99318.25;;;11.97;62.22
59487;BME280;45298;54.918;73.504;2023-09-12T04:14:11;99335.06;;;11.97;62.13
59487;BME280;45298;54.918;73.504;2023-09-12T04:16:40;99341.59;;;12.16;61.60
59487;BME280;45298;54.918;73.504;2023-09-12T04:19:09;99342.19;;;12.19;62.46
59487;BME280;45298;54.918;73.504;2023-09-12T04:21:39;99345.19;;;12.26;61.90
59487;BME280;45298;54.918;73.504;2023-09-12T04:24:08;99328.75;;;12.32;61.19
59487;BME280;45298;54.918;73.504;2023-09-12T04:26:38;99327.41;;;12.38;59.94
59487;BME280;45298;54.918;73.504;2023-09-12T04:29:07;99342.75;;;12.46;60.33
59487;BME280;45298;54.918;73.504;2023-09-12T04:31:36;99319.66;;;12.46;60.23
59487;BME280;45298;54.918;73.504;2023-09-12T04:34:06;99346.94;;;12.60;60.31
59487;BME280;45298;54.918;73.504;2023-09-12T04:36:36;99338.97;;;12.60;60.41
59487;BME280;45298;54.918;73.504;2023-09-12T04:39:05;99344.03;;;12.63;59.04
59487;BME280;45298;54.918;73.504;2023-09-12T04:41:35;99326.19;;;12.53;59.22
59487;BME280;45298;54.918;73.504;2023-09-12T04:44:04;99275.91;;;12.39;58.96
59487;BME280;45298;54.918;73.504;2023-09-12T04:46:34;99316.13;;;12.57;59.07
59487;BME280;45298;54.918;73.504;2023-09-12T04:49:04;99321.13;;;12.83;58.33
59487;BME280;45298;54.918;73.504;2023-09-12T04:51:33;99326.59;;;13.03;59.26
59487;BME280;45298;54.918;73.504;2023-09-12T04:54:03;99336.13;;;13.26;58.27
59487;BME280;45298;54.918;73.504;2023-09-12T04:56:33;99301.06;;;13.21;57.06
59487;BME280;45298;54.918;73.504;2023-09-12T04:59:02;99299.81;;;13.25;57.24
59487;BME280;45298;54.918;73.504;2023-09-12T05:01:32;99329.91;;;13.58;57.10
59487;BME280;45298;54.918;73.504;2023-09-12T05:04:02;99312.13;;;13.69;56.48
59487;BME280;45298;54.918;73.504;2023-09-12T05:06:32;99317.53;;;13.88;56.35
59487;BME280;45298;54.918;73.504;2023-09-12T05:09:01;99327.63;;;13.85;55.28
59487;BME280;45298;54.918;73.504;2023-09-12T05:11:31;99311.91;;;13.82;54.84
59487;BME280;45298;54.918;73.504;2023-09-12T05:14:00;99336.38;;;13.97;54.85
59487;BME280;45298;54.918;73.504;2023-09-12T05:16:32;99276.97;;;13.75;54.54
59487;BME280;45298;54.918;73.504;2023-09-12T05:19:01;99316.22;;;14.14;54.85
59487;BME280;45298;54.918;73.504;2023-09-12T05:21:30;99325.69;;;14.38;54.43
59487;BME280;45298;54.918;73.504;2023-09-12T05:24:00;99328.22;;;14.39;54.29
59487;BME280;45298;54.918;73.504;2023-09-12T05:26:28;99322.88;;;14.39;54.11
59487;BME280;45298;54.918;73.504;2023-09-12T05:28:58;99321.34;;;14.56;54.24
59487;BME280;45298;54.918;73.504;2023-09-12T05:31:26;99275.28;;;14.54;54.49
59487;BME280;45298;54.918;73.504;2023-09-12T05:33:56;99320.28;;;14.88;53.96
59487;BME280;45298;54.918;73.504;2023-09-12T05:36:25;99326.34;;;14.90;53.53
59487;BME280;45298;54.918;73.504;2023-09-12T05:38:54;99304.53;;;14.95;54.00
59487;BME280;45298;54.918;73.504;2023-09-12T05:41:26;99321.66;;;14.92;53.32
59487;BME280;45298;54.918;73.504;2023-09-12T05:43:55;99326.19;;;14.92;52.98
59487;BME280;45298;54.918;73.504;2023-09-12T05:46:24;99306.63;;;14.81;53.13
59487;BME280;45298;54.918;73.504;2023-09-12T05:48:53;99309.03;;;14.85;53.02
59487;BME280;45298;54.918;73.504;2023-09-12T05:51:22;99323.94;;;14.97;53.50
59487;BME280;45298;54.918;73.504;2023-09-12T05:53:51;99325.00;;;15.24;53.07
59487;BME280;45298;54.918;73.504;2023-09-12T05:56:20;99318.16;;;15.11;53.10
59487;BME280;45298;54.918;73.504;2023-09-12T05:58:49;99314.34;;;14.94;53.31
59487;BME280;45298;54.918;73.504;2023-09-12T06:01:18;99332.94;;;14.96;53.61
59487;BME280;45298;54.918;73.504;2023-09-12T06:03:47;99316.31;;;14.83;53.13
59487;BME280;45298;54.918;73.504;2023-09-12T06:06:16;99327.00;;;14.73;53.52
59487;BME280;45298;54.918;73.504;2023-09-12T06:08:45;99342.63;;;14.77;53.83
59487;BME280;45298;54.918;73.504;2023-09-12T06:11:14;99295.06;;;14.42;53.86
59487;BME280;45298;54.918;73.504;2023-09-12T06:13:44;99344.09;;;14.50;53.77
59487;BME280;45298;54.918;73.504;2023-09-12T06:16:13;99335.41;;;14.58;54.18
59487;BME280;45298;54.918;73.504;2023-09-12T06:18:42;99318.84;;;14.64;54.13
59487;BME280;45298;54.918;73.504;2023-09-12T06:21:11;99311.84;;;14.73;53.97
59487;BME280;45298;54.918;73.504;2023-09-12T06:23:40;99321.38;;;14.86;53.60
59487;BME280;45298;54.918;73.504;2023-09-12T06:26:09;99246.50;;;14.48;53.82
59487;BME280;45298;54.918;73.504;2023-09-12T06:28:38;99309.59;;;14.98;55.14
59487;BME280;45298;54.918;73.504;2023-09-12T06:31:10;99327.31;;;14.79;54.62
59487;BME280;45298;54.918;73.504;2023-09-12T06:33:39;99332.50;;;14.81;54.65
59487;BME280;45298;54.918;73.504;2023-09-12T06:36:08;99330.38;;;14.85;54.70
59487;BME280;45298;54.918;73.504;2023-09-12T06:38:37;99282.19;;;14.57;54.73
59487;BME280;45298;54.918;73.504;2023-09-12T06:41:06;99308.75;;;14.68;54.66
59487;BME280;45298;54.918;73.504;2023-09-12T06:43:35;99319.16;;;14.71;54.66
59487;BME280;45298;54.918;73.504;2023-09-12T06:46:04;99325.75;;;14.87;54.30
59487;BME280;45298;54.918;73.504;2023-09-12T06:48:33;99272.38;;;14.77;54.14
59487;BME280;45298;54.918;73.504;2023-09-12T06:51:05;99323.78;;;14.89;53.86
59487;BME280;45298;54.918;73.504;2023-09-12T06:53:41;99308.88;;;15.06;53.98
59487;BME280;45298;54.918;73.504;2023-09-12T06:56:13;99303.94;;;15.01;53.95
59487;BME280;45298;54.918;73.504;2023-09-12T06:58:42;99298.19;;;15.06;53.70
59487;BME280;45298;54.918;73.504;2023-09-12T07:01:11;99293.41;;;15.00;53.84
59487;BME280;45298;54.918;73.504;2023-09-12T07:03:40;99286.97;;;14.92;53.92
59487;BME280;45298;54.918;73.504;2023-09-12T07:06:09;99311.41;;;14.98;53.71
59487;BME280;45298;54.918;73.504;2023-09-12T07:08:38;99296.66;;;14.93;53.75
59487;BME280;45298;54.918;73.504;2023-09-12T07:11:07;99310.97;;;14.92;53.53
59487;BME280;45298;54.918;73.504;2023-09-12T07:13:36;99277.84;;;14.75;53.77
59487;BME280;45298;54.918;73.504;2023-09-12T07:16:05;99308.47;;;14.91;53.77
59487;BME280;45298;54.918;73.504;2023-09-12T07:18:34;99317.72;;;14.96;54.03
59487;BME280;45298;54.918;73.504;2023-09-12T07:21:04;99251.41;;;14.53;53.30
59487;BME280;45298;54.918;73.504;2023-09-12T07:23:34;99282.91;;;14.78;53.70
59487;BME280;45298;54.918;73.504;2023-09-12T07:26:03;99305.06;;;15.08;53.77
59487;BME280;45298;54.918;73.504;2023-09-12T07:28:32;99308.28;;;15.22;53.36
59487;BME280;45298;54.918;73.504;2023-09-12T07:31:01;99294.44;;;15.56;52.49
59487;BME280;45298;54.918;73.504;2023-09-12T07:33:30;99306.03;;;15.75;52.14
59487;BME280;45298;54.918;73.504;2023-09-12T07:35:59;99307.84;;;15.74;52.64
59487;BME280;45298;54.918;73.504;2023-09-12T07:38:28;99306.81;;;15.57;52.50
59487;BME280;45298;54.918;73.504;2023-09-12T07:40:59;99288.25;;;15.46;52.44
59487;BME280;45298;54.918;73.504;2023-09-12T07:43:29;99245.75;;;15.15;52.13
59487;BME280;45298;54.918;73.504;2023-09-12T07:45:58;99289.13;;;15.46;52.44
59487;BME280;45298;54.918;73.504;2023-09-12T07:48:27;99266.63;;;15.77;52.14
59487;BME280;45298;54.918;73.504;2023-09-12T07:50:56;99277.78;;;16.46;51.29
59487;BME280;45298;54.918;73.504;2023-09-12T07:53:25;99281.00;;;16.86;51.08
59487;BME280;45298;54.918;73.504;2023-09-12T07:55:53;99255.66;;;16.44;49.91
59487;BME280;45298;54.918;73.504;2023-09-12T07:58:23;99306.22;;;16.47;50.74
59487;BME280;45298;54.918;73.504;2023-09-12T08:00:52;99290.25;;;16.09;51.87
59487;BME280;45298;54.918;73.504;2023-09-12T08:03:21;99291.25;;;16.08;51.81
59487;BME280;45298;54.918;73.504;2023-09-12T08:05:59;99309.44;;;16.05;52.26
59487;BME280;45298;54.918;73.504;2023-09-12T08:08:28;99289.31;;;16.00;52.54
59487;BME280;45298;54.918;73.504;2023-09-12T08:10:59;99289.53;;;16.17;53.11
59487;BME280;45298;54.918;73.504;2023-09-12T08:13:29;99309.03;;;16.27;53.04
59487;BME280;45298;54.918;73.504;2023-09-12T08:15:58;99295.06;;;16.06;52.88
59487;BME280;45298;54.918;73.504;2023-09-12T08:18:30;99316.13;;;15.91;53.00
59487;BME280;45298;54.918;73.504;2023-09-12T08:21:02;99292.75;;;15.93;53.19
59487;BME280;45298;54.918;73.504;2023-09-12T08:23:31;99298.66;;;15.96;53.04
59487;BME280;45298;54.918;73.504;2023-09-12T08:26:00;99291.69;;;15.76;53.28
59487;BME280;45298;54.918;73.504;2023-09-12T08:28:28;99306.56;;;15.88;52.89
59487;BME280;45298;54.918;73.504;2023-09-12T08:30:57;99298.03;;;16.30;52.83
59487;BME280;45298;54.918;73.504;2023-09-12T08:33:26;99289.94;;;16.58;52.67
59487;BME280;45298;54.918;73.504;2023-09-12T08:35:55;99302.16;;;16.79;52.65
59487;BME280;45298;54.918;73.504;2023-09-12T08:38:24;99275.81;;;16.66;52.28
59487;BME280;45298;54.918;73.504;2023-09-12T08:40:53;99257.44;;;16.53;52.41
59487;BME280;45298;54.918;73.504;2023-09-12T08:43:22;99297.81;;;16.78;51.61
59487;BME280;45298;54.918;73.504;2023-09-12T08:45:51;99311.69;;;16.55;51.38
59487;BME280;45298;54.918;73.504;2023-09-12T08:48:21;99329.25;;;16.58;51.73
59487;BME280;45298;54.918;73.504;2023-09-12T08:50:53;99286.94;;;16.25;52.06
59487;BME280;45298;54.918;73.504;2023-09-12T08:53:22;99302.41;;;16.31;52.06
59487;BME280;45298;54.918;73.504;2023-09-12T08:55:52;99312.81;;;16.35;52.87
59487;BME280;45298;54.918;73.504;2023-09-12T08:58:21;99316.41;;;16.15;52.89
59487;BME280;45298;54.918;73.504;2023-09-12T09:00:51;99328.97;;;16.15;52.88
59487;BME280;45298;54.918;73.504;2023-09-12T09:03:22;99307.63;;;16.05;52.89
59487;BME280;45298;54.918;73.504;2023-09-12T09:05:52;99331.03;;;16.21;52.83
59487;BME280;45298;54.918;73.504;2023-09-12T09:08:23;99320.25;;;16.13;52.76
59487;BME280;45298;54.918;73.504;2023-09-12T09:10:57;99323.91;;;16.12;52.95
59487;BME280;45298;54.918;73.504;2023-09-12T09:13:26;99318.75;;;16.00;52.99
59487;BME280;45298;54.918;73.504;2023-09-12T09:16:14;99319.44;;;16.02;53.08
59487;BME280;45298;54.918;73.504;2023-09-12T09:21:25;99314.19;;;16.11;53.40
59487;BME280;45298;54.918;73.504;2023-09-12T09:23:55;99264.03;;;15.95;53.00
59487;BME280;45298;54.918;73.504;2023-09-12T09:26:24;99310.56;;;16.30;52.62
59487;BME280;45298;54.918;73.504;2023-09-12T09:29:07;99325.72;;;16.39;52.40
59487;BME280;45298;54.918;73.504;2023-09-12T09:31:43;99312.69;;;16.26;52.63
59487;BME280;45298;54.918;73.504;2023-09-12T09:34:16;99315.44;;;16.16;53.12
59487;BME280;45298;54.918;73.504;2023-09-12T09:36:51;99316.59;;;16.14;53.18
59487;BME280;45298;54.918;73.504;2023-09-12T09:39:22;99320.03;;;16.24;53.58
59487;BME280;45298;54.918;73.504;2023-09-12T09:41:56;99326.59;;;16.30;53.39
59487;BME280;45298;54.918;73.504;2023-09-12T09:44:27;99342.13;;;16.26;53.88
59487;BME280;45298;54.918;73.504;2023-09-12T09:47:00;99354.09;;;16.04;53.91
59487;BME280;45298;54.918;73.504;2023-09-12T09:49:34;99328.41;;;15.74;53.97
59487;BME280;45298;54.918;73.504;2023-09-12T09:52:06;99324.53;;;15.58;54.40
59487;BME280;45298;54.918;73.504;2023-09-12T09:54:35;99344.78;;;15.61;54.75
59487;BME280;45298;54.918;73.504;2023-09-12T09:57:05;99331.28;;;15.52;54.87
59487;BME280;45298;54.918;73.504;2023-09-12T09:59:34;99347.19;;;15.54;54.98
59487;BME280;45298;54.918;73.504;2023-09-12T10:02:06;99349.41;;;15.59;54.58
59487;BME280;45298;54.918;73.504;2023-09-12T10:04:42;99337.56;;;15.61;54.69
59487;BME280;45298;54.918;73.504;2023-09-12T10:07:14;99337.22;;;15.84;54.26
59487;BME280;45298;54.918;73.504;2023-09-12T10:09:45;99336.09;;;15.96;53.81
59487;BME280;45298;54.918;73.504;2023-09-12T10:12:14;99346.63;;;15.98;54.01
59487;BME280;45298;54.918;73.504;2023-09-12T10:14:45;99337.78;;;15.97;53.69
59487;BME280;45298;54.918;73.504;2023-09-12T10:17:17;99332.44;;;15.97;53.96
59487;BME280;45298;54.918;73.504;2023-09-12T10:19:55;99326.06;;;15.98;53.89
59487;BME280;45298;54.918;73.504;2023-09-12T10:22:29;99334.59;;;16.12;54.07
59487;BME280;45298;54.918;73.504;2023-09-12T10:25:01;99323.91;;;16.12;53.69
59487;BME280;45298;54.918;73.504;2023-09-12T10:27:30;99349.47;;;16.24;54.11
59487;BME280;45298;54.918;73.504;2023-09-12T10:30:02;99326.19;;;16.07;53.98
59487;BME280;45298;54.918;73.504;2023-09-12T10:32:33;99355.59;;;16.07;53.99
59487;BME280;45298;54.918;73.504;2023-09-12T10:35:06;99338.66;;;15.88;54.67
59487;BME280;45298;54.918;73.504;2023-09-12T10:37:38;99353.00;;;15.87;54.75
59487;BME280;45298;54.918;73.504;2023-09-12T10:40:11;99306.38;;;15.62;55.09
59487;BME280;45298;54.918;73.504;2023-09-12T10:42:41;99355.78;;;16.05;54.70
59487;BME280;45298;54.918;73.504;2023-09-12T10:45:11;99298.19;;;16.01;54.81
59487;BME280;45298;54.918;73.504;2023-09-12T10:47:40;99346.06;;;16.50;54.30
59487;BME280;45298;54.918;73.504;2023-09-12T10:50:09;99364.28;;;16.46;54.13
59487;BME280;45298;54.918;73.504;2023-09-12T10:52:38;99369.28;;;16.31;54.00
59487;BME280;45298;54.918;73.504;2023-09-12T10:55:15;99364.97;;;16.21;54.62
59487;BME280;45298;54.918;73.504;2023-09-12T10:58:03;99377.53;;;16.10;54.61
59487;BME280;45298;54.918;73.504;2023-09-12T11:00:33;99342.84;;;15.91;54.76
59487;BME280;45298;54.918;73.504;2023-09-12T11:05:56;99348.47;;;15.97;54.91
59487;BME280;45298;54.918;73.504;2023-09-12T11:08:25;99354.22;;;16.02;54.72
59487;BME280;45298;54.918;73.504;2023-09-12T11:11:19;99368.53;;;16.11;54.81
59487;BME280;45298;54.918;73.504;2023-09-12T11:14:07;99357.44;;;16.06;54.19
59487;BME280;45298;54.918;73.504;2023-09-12T11:16:35;99364.81;;;16.22;54.50
59487;BME280;45298;54.918;73.504;2023-09-12T11:19:22;99350.75;;;16.20;54.42
59487;BME280;45298;54.918;73.504;2023-09-12T11:21:53;99313.78;;;16.06;54.75
59487;BME280;45298;54.918;73.504;2023-09-12T11:24:24;99354.47;;;16.37;54.73
59487;BME280;45298;54.918;73.504;2023-09-12T11:29:27;99373.53;;;16.52;54.11
59487;BME280;45298;54.918;73.504;2023-09-12T11:31:59;99381.94;;;16.57;54.04
59487;BME280;45298;54.918;73.504;2023-09-12T11:34:29;99386.38;;;16.49;54.27
59487;BME280;45298;54.918;73.504;2023-09-12T11:36:59;99366.91;;;16.28;54.32
59487;BME280;45298;54.918;73.504;2023-09-12T11:39:33;99375.81;;;16.19;53.84
59487;BME280;45298;54.918;73.504;2023-09-12T11:42:04;99389.81;;;16.13;54.38
59487;BME280;45298;54.918;73.504;2023-09-12T11:44:33;99359.75;;;15.91;54.16
59487;BME280;45298;54.918;73.504;2023-09-12T11:47:04;99381.66;;;16.05;54.44
59487;BME280;45298;54.918;73.504;2023-09-12T11:49:36;99366.75;;;16.02;54.52
59487;BME280;45298;54.918;73.504;2023-09-12T11:52:14;99387.22;;;16.21;54.65
59487;BME280;45298;54.918;73.504;2023-09-12T11:54:44;99380.03;;;16.22;54.78
59487;BME280;45298;54.918;73.504;2023-09-12T11:57:14;99392.28;;;16.24;54.68
59487;BME280;45298;54.918;73.504;2023-09-12T11:59:44;99384.66;;;16.29;54.92
59487;BME280;45298;54.918;73.504;2023-09-12T12:02:16;99380.97;;;16.30;54.87
59487;BME280;45298;54.918;73.504;2023-09-12T12:04:45;99381.44;;;16.26;55.47
59487;BME280;45298;54.918;73.504;2023-09-12T12:07:14;99390.19;;;16.18;55.88
59487;BME280;45298;54.918;73.504;2023-09-12T12:09:43;99390.63;;;16.13;55.77
59487;BME280;45298;54.918;73.504;2023-09-12T12:12:13;99392.19;;;16.16;55.84
59487;BME280;45298;54.918;73.504;2023-09-12T12:14:45;99397.91;;;16.21;55.50
59487;BME280;45298;54.918;73.504;2023-09-12T12:17:15;99392.06;;;16.08;55.86
59487;BME280;45298;54.918;73.504;2023-09-12T12:19:45;99401.53;;;16.02;55.91
59487;BME280;45298;54.918;73.504;2023-09-12T12:22:15;99406.22;;;15.90;55.73
59487;BME280;45298;54.918;73.504;2023-09-12T12:24:47;99386.50;;;15.81;56.37
59487;BME280;45298;54.918;73.504;2023-09-12T12:27:16;99355.19;;;15.54;56.32
59487;BME280;45298;54.918;73.504;2023-09-12T12:29:48;99400.88;;;15.70;56.93
59487;BME280;45298;54.918;73.504;2023-09-12T12:32:17;99388.38;;;15.61;56.77
59487;BME280;45298;54.918;73.504;2023-09-12T12:34:49;99421.41;;;15.70;56.83
59487;BME280;45298;54.918;73.504;2023-09-12T12:37:38;99416.09;;;15.60;57.11
59487;BME280;45298;54.918;73.504;2023-09-12T12:40:12;99408.38;;;15.47;57.27
59487;BME280;45298;54.918;73.504;2023-09-12T12:42:42;99421.59;;;15.49;57.66
59487;BME280;45298;54.918;73.504;2023-09-12T12:45:23;99415.00;;;15.43;57.87
59487;BME280;45298;54.918;73.504;2023-09-12T12:47:58;99409.38;;;15.36;57.99
59487;BME280;45298;54.918;73.504;2023-09-12T12:50:28;99400.94;;;15.31;58.15
59487;BME280;45298;54.918;73.504;2023-09-12T12:52:57;99413.03;;;15.35;58.33
59487;BME280;45298;54.918;73.504;2023-09-12T12:55:26;99399.81;;;15.24;58.18
59487;BME280;45298;54.918;73.504;2023-09-12T12:57:55;99412.19;;;15.35;58.46
59487;BME280;45298;54.918;73.504;2023-09-12T13:00:24;99409.22;;;15.28;58.72
59487;BME280;45298;54.918;73.504;2023-09-12T13:02:53;99420.34;;;15.33;58.69
59487;BME280;45298;54.918;73.504;2023-09-12T13:05:27;99425.00;;;15.31;59.09
59487;BME280;45298;54.918;73.504;2023-09-12T13:07:56;99427.09;;;15.28;59.13
59487;BME280;45298;54.918;73.504;2023-09-12T13:10:25;99428.50;;;15.22;59.16
59487;BME280;45298;54.918;73.504;2023-09-12T13:12:54;99436.09;;;15.17;59.44
59487;BME280;45298;54.918;73.504;2023-09-12T13:15:26;99436.38;;;15.14;59.67
59487;BME280;45298;54.918;73.504;2023-09-12T13:17:55;99441.72;;;15.14;59.64
59487;BME280;45298;54.918;73.504;2023-09-12T13:20:24;99428.47;;;15.02;59.78
59487;BME280;45298;54.918;73.504;2023-09-12T13:22:52;99385.59;;;14.74;60.13